Meteo Giornale » Osservazioni meteo Italia » Napoli-Capodichino

ore: 02:50 - Osservazioni Meteo Napoli-Capodichino
Lat. 40° 51' N Lon. 14° 18' E Alt. 88 metri s.l.m.

poco_nuvoloso Europe/Rome

19 °C

Poco Nuvoloso

Temp. 24 Ore

16 °C

26 °C

Nord

3.7 Km/h

Dew point 17 °C

Umidità 88 %

Visibilità  10 Km

Il sole sorge alle ore 05:35

Il sole tramonta alle ore 20:24

Data e Ora Cielo e Fenomeni T °C DP °C Um. % Pres. hPa Vis. km Vento km/h
Oggi h: 02:50 poco_nuvoloso Poco Nuvoloso 19 17 88 1015 10 N 3.7
Oggi h: 02:20 poco_nuvoloso Poco Nuvoloso 19 16 82 1016 10 O 9.3
Oggi h: 01:20 poco_nuvoloso Poco Nuvoloso 19 15 77 1016 10 N 0
Oggi h: 00:50 poco_nuvoloso Poco Nuvoloso 19 16 82 1016 10 N 3.7
Oggi h: 00:20 poco_nuvoloso Poco Nuvoloso 19 16 82 1016 10 N 3.7
Ieri h: 23:50 poco_nuvoloso Poco Nuvoloso 19 16 82 1017 10 N 3.7
Ieri h: 23:20 poco_nuvoloso Poco Nuvoloso 19 16 82 1017 10 N 5.5
Ieri h: 22:50 poco_nuvoloso Poco Nuvoloso 20 16 77 1017 10 N 3.7
Ieri h: 22:20 nuvoloso Nuvoloso 21 16 73 1017 10 N 7.4
Ieri h: 21:50 nuvoloso Nuvoloso 21 16 73 1017 10 N 5.5
Ieri h: 21:20 molto_nuvoloso Molto Nuvoloso 21 15 68 1017 10 N 3.7
Ieri h: 20:50 molto_nuvoloso Molto Nuvoloso 20 16 77 1016 10 O/SO 13
Ieri h: 20:20 molto_nuvoloso Molto Nuvoloso 21 16 73 1016 10 N 3.7
Ieri h: 19:50 coperto_pioggia Pioggia Debole 21 16 73 1016 10 N 5.5
Ieri h: 19:20 molto_nuvoloso Molto Nuvoloso 22 16 68 1017 10 NE 9.3
Ieri h: 18:50 coperto_pioggia Pioggia Debole 21 15 68 1017 10 N/NE 9.3
Ieri h: 18:20 molto_nuvoloso Molto Nuvoloso 21 15 68 1017 10 N 5.5
Ieri h: 17:50 molto_nuvoloso Molto Nuvoloso 22 15 64 1017 10 O/NO 20.3
Ieri h: 17:20 nuvoloso Nuvoloso 23 13 53 1017 10 O 13
Ieri h: 16:50 nuvoloso Nuvoloso 24 12 47 1016 10 O/NO 14.8
Ieri h: 16:20 nuvoloso Nuvoloso 26 14 47 1016 10 O/NO 16.7
Ieri h: 15:50 nuvoloso Nuvoloso 26 13 44 1016 10 N 11.1
Ieri h: 15:20 nuvoloso Nuvoloso 25 16 57 1017 10 S 11.1
Ieri h: 14:50 poco_nuvoloso Poco Nuvoloso 25 17 61 1017 10 S 14.8
Ieri h: 14:20 poco_nuvoloso Poco Nuvoloso 25 16 57 1017 10 S 14.8
Ieri h: 13:50 poco_nuvoloso Poco Nuvoloso 25 16 57 1017 10 S 16.7
Ieri h: 13:20 poco_nuvoloso Poco Nuvoloso 25 15 53 1017 10 S 16.7
Ieri h: 12:50 poco_nuvoloso Poco Nuvoloso 24 16 60 1018 10 S 16.7
Ieri h: 12:20 poco_nuvoloso Poco Nuvoloso 24 15 57 1018 10 S 11.1
Ieri h: 11:50 poco_nuvoloso Poco Nuvoloso 24 15 57 1018 10 S 11.1
Ieri h: 11:20 poco_nuvoloso Poco Nuvoloso 24 15 57 1018 10 S 9.3
Ieri h: 10:50 sereno Sereno 24 15 57 1018 10 S 11.1
Ieri h: 10:20 poco_nuvoloso Poco Nuvoloso 24 15 57 1018 10 N 3.7
Ieri h: 09:50 poco_nuvoloso Poco Nuvoloso 23 15 60 1018 10 N 3.7
Ieri h: 09:20 sereno Sereno 22 15 64 1019 10 N 3.7
Ieri h: 08:50 sereno Sereno 22 15 64 1019 10 N 3.7
Ieri h: 08:20 sereno Sereno 21 15 68 1019 10 N 0
Ieri h: 07:50 sereno Sereno 21 16 73 1018 10 N 1.8
Ieri h: 07:20 sereno Sereno 20 15 72 1018 10 N 0
Ieri h: 06:50 sereno Sereno 19 15 77 1018 10 N 0
Ieri h: 06:20 sereno Sereno 17 14 82 1018 10 N 0
Ieri h: 05:50 poco_nuvoloso Poco Nuvoloso 16 13 82 1018 10 N 1.8
Ieri h: 05:20 poco_nuvoloso Poco Nuvoloso 17 14 82 1017 10 N 0
Ieri h: 04:50 poco_nuvoloso Poco Nuvoloso 17 15 88 1018 10 N 5.5
Ieri h: 04:20 poco_nuvoloso Poco Nuvoloso 17 15 88 1018 10 N 5.5
Ieri h: 03:50 poco_nuvoloso Poco Nuvoloso 17 14 82 1018 10 N 5.5